createdAt,value
2019-04-27T00:00:01.141Z,10.33
2019-04-27T00:00:53.462Z,10.31
2019-04-27T00:01:53.819Z,10.37
2019-04-27T00:02:55.725Z,10.34
2019-04-27T00:03:51.536Z,10.37
2019-04-27T00:04:58.126Z,10.35
2019-04-27T00:05:53.370Z,10.42
2019-04-27T00:06:51.259Z,10.33
2019-04-27T00:07:56.113Z,10.33
2019-04-27T00:08:53.415Z,10.35
2019-04-27T00:09:55.526Z,10.35
2019-04-27T00:10:53.237Z,10.31
2019-04-27T00:11:53.180Z,10.33
2019-04-27T00:12:53.018Z,10.41
2019-04-27T00:13:51.239Z,10.44
2019-04-27T00:14:57.021Z,10.59
2019-04-27T00:15:51.697Z,10.61
2019-04-27T00:16:56.045Z,10.6
2019-04-27T00:17:58.876Z,10.75
2019-04-27T00:18:58.870Z,10.78
2019-04-27T00:19:51.438Z,10.81
2019-04-27T00:20:53.154Z,10.81
2019-04-27T00:21:52.872Z,10.93
2019-04-27T00:22:53.360Z,10.92
2019-04-27T00:23:53.152Z,10.9
2019-04-27T00:24:53.163Z,10.89
2019-04-27T00:25:52.749Z,10.82
2019-04-27T00:26:51.406Z,10.86
2019-04-27T00:27:51.408Z,10.9
2019-04-27T00:28:51.402Z,10.93
2019-04-27T00:29:53.348Z,10.92
2019-04-27T00:30:52.744Z,11.08
2019-04-27T00:31:51.380Z,11.11
2019-04-27T00:32:51.372Z,11.19
2019-04-27T00:33:53.372Z,11.05
2019-04-27T00:34:53.089Z,11.08
2019-04-27T00:35:51.384Z,11.07
2019-04-27T00:36:51.389Z,11.02
2019-04-27T00:37:52.927Z,10.96
2019-04-27T00:38:53.299Z,11.07
2019-04-27T00:39:51.339Z,10.92
2019-04-27T00:40:51.327Z,10.86
2019-04-27T00:41:52.976Z,10.99
2019-04-27T00:42:51.326Z,10.94
2019-04-27T00:43:51.080Z,10.96
2019-04-27T00:44:51.560Z,10.96
2019-04-27T00:45:51.330Z,10.9
2019-04-27T00:46:51.063Z,10.87
2019-04-27T00:48:03.483Z,10.89
2019-04-27T00:48:51.291Z,10.92
2019-04-27T00:49:52.572Z,10.92
2019-04-27T00:50:52.723Z,10.94
2019-04-27T00:51:51.269Z,10.96
2019-04-27T00:52:52.757Z,10.99
2019-04-27T00:53:51.262Z,10.96
2019-04-27T00:54:51.280Z,10.92
2019-04-27T00:55:51.491Z,10.82
2019-04-27T00:56:52.926Z,10.81
2019-04-27T00:57:51.240Z,10.78
2019-04-27T00:58:53.528Z,10.69
2019-04-27T00:59:52.870Z,10.64
2019-04-27T01:00:51.485Z,10.6
2019-04-27T01:01:51.222Z,10.57
2019-04-27T01:02:51.567Z,10.64
2019-04-27T01:03:52.979Z,10.63
2019-04-27T01:04:52.817Z,10.61
2019-04-27T01:05:51.209Z,10.56
2019-04-27T01:06:51.444Z,10.51
2019-04-27T01:07:51.451Z,10.46
2019-04-27T01:08:50.998Z,10.46
2019-04-27T01:09:52.780Z,10.44
2019-04-27T01:10:51.173Z,10.42
2019-04-27T01:11:53.275Z,10.4
2019-04-27T01:12:52.947Z,10.35
2019-04-27T01:13:51.414Z,10.23
2019-04-27T01:14:53.081Z,10.28
2019-04-27T01:15:50.902Z,10.28
2019-04-27T01:16:51.670Z,10.33
2019-04-27T01:17:51.505Z,10.34
2019-04-27T01:18:51.154Z,10.34
2019-04-27T01:19:51.584Z,10.33
2019-04-27T01:20:51.098Z,10.33
2019-04-27T01:21:52.116Z,10.26
2019-04-27T01:22:51.439Z,10.16
2019-04-27T01:23:51.352Z,10.23
2019-04-27T01:24:51.657Z,10.07
2019-04-27T01:25:53.508Z,10.12
2019-04-27T01:26:52.408Z,10.17
2019-04-27T01:27:51.828Z,10.2
2019-04-27T01:28:51.430Z,10.1
2019-04-27T01:29:52.438Z,10.07
2019-04-27T01:30:51.433Z,9.98
2019-04-27T01:31:51.328Z,10.02
2019-04-27T01:32:51.775Z,9.87
2019-04-27T01:33:51.349Z,9.84
2019-04-27T01:34:51.824Z,9.83
2019-04-27T01:35:51.596Z,9.77
2019-04-27T01:36:51.723Z,9.76
2019-04-27T01:37:51.285Z,9.77
2019-04-27T01:38:52.110Z,9.76
2019-04-27T01:39:52.830Z,9.77
2019-04-27T01:40:52.237Z,9.77
2019-04-27T01:41:51.599Z,9.74
2019-04-27T01:42:51.247Z,9.77
2019-04-27T01:43:51.325Z,9.73
2019-04-27T01:44:53.395Z,9.72
2019-04-27T01:45:51.271Z,9.76
2019-04-27T01:46:51.170Z,9.76
2019-04-27T01:47:51.663Z,9.68
2019-04-27T01:48:51.496Z,9.65
2019-04-27T01:49:51.983Z,9.61
2019-04-27T01:50:51.663Z,9.61
2019-04-27T01:51:51.737Z,9.59
2019-04-27T01:52:51.186Z,9.55
2019-04-27T01:53:51.663Z,9.55
2019-04-27T01:54:52.010Z,9.58
2019-04-27T01:55:51.639Z,9.62
2019-04-27T01:56:51.480Z,9.58
2019-04-27T01:57:51.221Z,9.56
2019-04-27T01:58:51.867Z,9.56
2019-04-27T01:59:51.200Z,9.56
2019-04-27T02:00:51.586Z,9.5
2019-04-27T02:01:51.402Z,9.43
2019-04-27T02:02:51.879Z,9.43
2019-04-27T02:03:51.338Z,9.31
2019-04-27T02:04:51.797Z,9.29
2019-04-27T02:05:51.466Z,9.22
2019-04-27T02:06:51.182Z,9.26
2019-04-27T02:07:51.549Z,9.06
2019-04-27T02:08:51.736Z,9.18
2019-04-27T02:09:50.892Z,9.1
2019-04-27T02:10:52.008Z,9.03
2019-04-27T02:11:51.414Z,9.1
2019-04-27T02:12:51.180Z,9.03
2019-04-27T02:13:51.503Z,9
2019-04-27T02:14:51.553Z,9.08
2019-04-27T02:15:51.185Z,9
2019-04-27T02:16:51.494Z,8.94
2019-04-27T02:17:53.171Z,8.97
2019-04-27T02:18:51.052Z,8.91
2019-04-27T02:19:51.625Z,8.95
2019-04-27T02:20:51.690Z,8.99
2019-04-27T02:21:53.672Z,9
2019-04-27T02:22:50.992Z,9.1
2019-04-27T02:23:51.896Z,9
2019-04-27T02:24:51.727Z,9.02
2019-04-27T02:25:52.106Z,9.03
2019-04-27T02:26:52.176Z,9.02
2019-04-27T02:27:51.504Z,9.13
2019-04-27T02:28:51.731Z,9.06
2019-04-27T02:29:51.548Z,9
2019-04-27T02:30:52.290Z,9.03
2019-04-27T02:31:52.528Z,9.06
2019-04-27T02:32:52.064Z,9.06
2019-04-27T02:33:52.511Z,9.1
2019-04-27T02:34:52.726Z,9.08
2019-04-27T02:35:53.060Z,9.16
2019-04-27T02:36:52.726Z,9.16
2019-04-27T02:37:52.704Z,9.22
2019-04-27T02:38:51.698Z,9.18
2019-04-27T02:39:52.279Z,9.16
2019-04-27T02:40:52.134Z,9.34
2019-04-27T02:41:54.053Z,9.31
2019-04-27T02:42:54.988Z,9.25
2019-04-27T02:43:52.018Z,9.29
2019-04-27T02:44:51.740Z,9.29
2019-04-27T02:45:52.775Z,9.31
2019-04-27T02:46:52.666Z,9.41
2019-04-27T02:47:52.038Z,9.48
2019-04-27T02:49:10.443Z,9.39
2019-04-27T02:49:53.060Z,9.34
2019-04-27T02:50:52.237Z,9.32
2019-04-27T02:51:52.042Z,9.29
2019-04-27T02:52:52.596Z,9.36
2019-04-27T02:53:52.246Z,9.34
2019-04-27T02:54:52.791Z,9.19
2019-04-27T02:55:52.195Z,9.16
2019-04-27T02:56:54.529Z,9.18
2019-04-27T02:57:52.287Z,9.22
2019-04-27T02:58:52.139Z,9.23
2019-04-27T02:59:52.898Z,9.21
2019-04-27T03:00:52.646Z,9.16
2019-04-27T03:01:55.120Z,9.14
2019-04-27T03:02:53.386Z,9.21
2019-04-27T03:03:52.758Z,9.19
2019-04-27T03:04:52.403Z,9.19
2019-04-27T03:05:52.821Z,9.18
2019-04-27T03:06:52.279Z,9.19
2019-04-27T03:07:52.633Z,9.19
2019-04-27T03:08:59.889Z,9.23
2019-04-27T03:09:53.349Z,9.13
2019-04-27T03:10:52.625Z,9.06
2019-04-27T03:11:52.465Z,9.19
2019-04-27T03:12:52.464Z,9.06
2019-04-27T03:13:53.895Z,9.11
2019-04-27T03:14:53.067Z,9.11
2019-04-27T03:15:52.140Z,9.02
2019-04-27T03:16:52.093Z,9.02
2019-04-27T03:17:51.934Z,8.95
2019-04-27T03:19:09.693Z,9.04
2019-04-27T03:19:54.415Z,9.02
2019-04-27T03:20:52.854Z,9.04
2019-04-27T03:21:51.965Z,8.97
2019-04-27T03:22:52.356Z,8.99
2019-04-27T03:23:52.621Z,8.94
2019-04-27T03:24:52.293Z,8.89
2019-04-27T03:25:52.794Z,8.82
2019-04-27T03:26:52.543Z,8.79
2019-04-27T03:27:52.707Z,8.71
2019-04-27T03:28:52.747Z,8.63
2019-04-27T03:29:52.364Z,8.53
2019-04-27T03:30:54.433Z,8.58
2019-04-27T03:31:56.703Z,8.63
2019-04-27T03:33:02.673Z,8.61
2019-04-27T03:34:05.017Z,8.55
2019-04-27T03:34:54.665Z,8.56
2019-04-27T03:35:54.848Z,8.49
2019-04-27T03:36:53.797Z,8.46
2019-04-27T03:37:52.617Z,8.46
2019-04-27T03:38:52.036Z,8.61
2019-04-27T03:39:52.361Z,8.63
2019-04-27T03:40:55.087Z,8.58
2019-04-27T03:41:55.062Z,8.66
2019-04-27T03:42:52.306Z,8.63
2019-04-27T03:43:52.784Z,8.58
2019-04-27T03:44:52.752Z,8.58
2019-04-27T03:45:54.403Z,8.6
2019-04-27T03:46:51.842Z,8.63
2019-04-27T03:47:52.520Z,8.7
2019-04-27T03:48:51.994Z,8.73
2019-04-27T03:49:53.241Z,8.69
2019-04-27T03:50:53.022Z,8.76
2019-04-27T03:51:52.288Z,8.73
2019-04-27T03:52:52.421Z,8.79
2019-04-27T03:53:51.960Z,8.82
2019-04-27T03:54:52.868Z,8.79
2019-04-27T03:55:52.648Z,8.85
2019-04-27T03:56:53.160Z,8.81
2019-04-27T03:57:52.025Z,8.81
2019-04-27T03:58:51.949Z,8.87
2019-04-27T03:59:52.746Z,8.88
2019-04-27T04:00:52.111Z,8.87
2019-04-27T04:01:52.980Z,8.85
2019-04-27T04:02:52.661Z,8.82
2019-04-27T04:03:52.605Z,8.74
2019-04-27T04:04:52.843Z,8.69
2019-04-27T04:05:52.459Z,8.84
2019-04-27T04:06:51.692Z,8.69
2019-04-27T04:07:52.503Z,8.71
2019-04-27T04:08:55.146Z,8.82
2019-04-27T04:09:52.636Z,8.85
2019-04-27T04:10:52.016Z,8.82
2019-04-27T04:11:51.589Z,8.82
2019-04-27T04:12:55.657Z,8.78
2019-04-27T04:13:51.943Z,8.81
2019-04-27T04:14:51.776Z,8.71
2019-04-27T04:15:52.359Z,8.76
2019-04-27T04:16:52.212Z,8.73
2019-04-27T04:17:52.040Z,8.78
2019-04-27T04:18:52.254Z,8.81
2019-04-27T04:20:02.955Z,8.78
2019-04-27T04:20:52.951Z,8.89
2019-04-27T04:21:52.730Z,8.89
2019-04-27T04:22:51.378Z,9.04
2019-04-27T04:23:51.932Z,9.02
2019-04-27T04:24:50.610Z,8.97
2019-04-27T04:25:52.483Z,9
2019-04-27T04:26:52.601Z,9.03
2019-04-27T04:27:52.819Z,9
2019-04-27T04:28:52.404Z,9.03
2019-04-27T04:29:51.478Z,8.97
2019-04-27T04:30:52.600Z,8.97
2019-04-27T04:31:52.811Z,8.89
2019-04-27T04:32:54.182Z,8.88
2019-04-27T04:33:51.741Z,8.88
2019-04-27T04:34:52.661Z,8.87
2019-04-27T04:35:51.910Z,8.88
2019-04-27T04:36:52.560Z,8.89
2019-04-27T04:37:54.672Z,8.92
2019-04-27T04:38:52.769Z,8.89
2019-04-27T04:39:55.218Z,8.94
2019-04-27T04:40:50.284Z,9.13
2019-04-27T04:41:53.296Z,9.19
2019-04-27T04:42:52.390Z,9.4
2019-04-27T04:43:51.490Z,9.61
2019-04-27T04:44:52.628Z,9.77
2019-04-27T04:45:52.609Z,9.97
2019-04-27T04:46:52.238Z,10.19
2019-04-27T04:47:52.228Z,10.4
2019-04-27T04:48:52.731Z,10.54
2019-04-27T04:50:08.349Z,10.74
2019-04-27T04:50:52.539Z,10.86
2019-04-27T04:51:52.702Z,11.11
2019-04-27T04:52:52.360Z,11.41
2019-04-27T04:53:52.023Z,11.66
2019-04-27T04:54:52.086Z,11.9
2019-04-27T04:55:51.358Z,12.22
2019-04-27T04:56:51.809Z,12.5
2019-04-27T04:57:51.830Z,12.75
2019-04-27T04:58:51.857Z,12.98
2019-04-27T04:59:53.320Z,13.19
2019-04-27T05:00:52.280Z,13.47
2019-04-27T05:01:52.003Z,13.67
2019-04-27T05:02:51.397Z,13.9
2019-04-27T05:03:51.283Z,14.2
2019-04-27T05:04:51.644Z,14.32
2019-04-27T05:05:52.520Z,14.5
2019-04-27T05:06:52.969Z,14.62
2019-04-27T05:07:51.069Z,14.78
2019-04-27T05:08:51.755Z,14.85
2019-04-27T05:09:51.030Z,14.82
2019-04-27T05:10:52.036Z,14.7
2019-04-27T05:11:51.152Z,14.54
2019-04-27T05:12:52.406Z,14.36
2019-04-27T05:13:51.759Z,13.96
2019-04-27T05:14:51.404Z,13.7
2019-04-27T05:15:51.143Z,13.44
2019-04-27T05:16:51.121Z,13.01
2019-04-27T05:17:53.120Z,12.85
2019-04-27T05:18:51.921Z,12.75
2019-04-27T05:19:51.495Z,12.67
2019-04-27T05:20:51.092Z,12.62
2019-04-27T05:21:51.288Z,12.67
2019-04-27T05:22:51.566Z,12.72
2019-04-27T05:23:51.145Z,12.98
2019-04-27T05:24:51.705Z,13.22
2019-04-27T05:25:51.487Z,13.18
2019-04-27T05:26:51.192Z,13.05
2019-04-27T05:27:51.460Z,13
2019-04-27T05:28:51.379Z,13.22
2019-04-27T05:29:51.279Z,13.16
2019-04-27T05:30:51.442Z,13.18
2019-04-27T05:31:51.368Z,13.11
2019-04-27T05:32:51.920Z,13.22
2019-04-27T05:33:51.423Z,13.38
2019-04-27T05:34:51.888Z,13.54
2019-04-27T05:35:51.715Z,13.7
2019-04-27T05:36:54.974Z,13.78
2019-04-27T05:37:51.565Z,14.07
2019-04-27T05:38:52.299Z,14.47
2019-04-27T05:39:51.152Z,14.41
2019-04-27T05:40:51.963Z,14.48
2019-04-27T05:41:52.127Z,14.65
2019-04-27T05:42:58.872Z,15.02
2019-04-27T05:43:51.232Z,15.24
2019-04-27T05:44:51.423Z,15.28
2019-04-27T05:45:53.141Z,15.02
2019-04-27T05:46:51.142Z,14.88
2019-04-27T05:47:55.151Z,14.68
2019-04-27T05:48:51.286Z,14.86
2019-04-27T05:49:50.964Z,15.06
2019-04-27T05:51:01.825Z,15.54
2019-04-27T05:51:52.974Z,15.83
2019-04-27T05:52:51.769Z,16.32
2019-04-27T05:53:49.656Z,16.69
2019-04-27T05:54:51.300Z,16.79
2019-04-27T05:55:51.569Z,16.71
2019-04-27T05:56:51.603Z,16.69
2019-04-27T05:57:51.387Z,16.83
2019-04-27T05:58:53.466Z,16.89
2019-04-27T05:59:49.875Z,16.78
2019-04-27T06:00:51.916Z,16.69
2019-04-27T06:01:51.656Z,16.6
2019-04-27T06:02:51.174Z,16.71
2019-04-27T06:03:49.886Z,16.86
2019-04-27T06:04:52.015Z,17.01
2019-04-27T06:05:51.114Z,17.05
2019-04-27T06:06:50.032Z,17.19
2019-04-27T06:07:50.975Z,17.63
2019-04-27T06:08:51.831Z,18.05
2019-04-27T06:09:51.642Z,18.31
2019-04-27T06:10:51.282Z,18.29
2019-04-27T06:11:52.569Z,18.35
2019-04-27T06:12:51.036Z,18.7
2019-04-27T06:13:51.675Z,18.92
2019-04-27T06:14:51.723Z,18.99
2019-04-27T06:15:50.047Z,19.19
2019-04-27T06:16:53.206Z,19.33
2019-04-27T06:17:50.870Z,19.34
2019-04-27T06:18:51.671Z,19.19
2019-04-27T06:19:51.414Z,19.07
2019-04-27T06:20:59.788Z,19.27
2019-04-27T06:21:50.041Z,19.22
2019-04-27T06:22:51.378Z,19.31
2019-04-27T06:23:51.009Z,19.56
2019-04-27T06:24:56.627Z,19.86
2019-04-27T06:25:51.665Z,20.04
2019-04-27T06:26:52.136Z,20.21
2019-04-27T06:27:51.911Z,20.29
2019-04-27T06:28:50.464Z,20.36
2019-04-27T06:29:51.500Z,20.51
2019-04-27T06:30:51.666Z,20.69
2019-04-27T06:31:51.970Z,20.7
2019-04-27T06:32:49.745Z,20.51
2019-04-27T06:33:52.093Z,20.52
2019-04-27T06:34:51.337Z,20.4
2019-04-27T06:35:51.931Z,20.26
2019-04-27T06:36:51.120Z,20.06
2019-04-27T06:37:51.732Z,20.21
2019-04-27T06:38:50.992Z,20.29
2019-04-27T06:39:51.843Z,20.25
2019-04-27T06:40:51.171Z,20.31
2019-04-27T06:41:51.433Z,20.4
2019-04-27T06:42:51.093Z,20.39
2019-04-27T06:43:51.848Z,20.41
2019-04-27T06:44:51.822Z,20.55
2019-04-27T06:45:51.263Z,20.5
2019-04-27T06:46:51.203Z,20.69
2019-04-27T06:47:51.542Z,20.77
2019-04-27T06:48:51.931Z,20.66
2019-04-27T06:49:49.820Z,20.85
2019-04-27T06:51:02.529Z,20.93
2019-04-27T06:51:51.941Z,21.14
2019-04-27T06:52:51.233Z,21.14
2019-04-27T06:53:51.529Z,21.33
2019-04-27T06:54:51.018Z,21.35
2019-04-27T06:55:52.173Z,21.25
2019-04-27T06:56:51.017Z,21.06
2019-04-27T06:57:51.556Z,20.77
2019-04-27T06:58:51.594Z,20.37
2019-04-27T06:59:51.096Z,20.02
2019-04-27T07:00:49.780Z,19.85
2019-04-27T07:01:51.315Z,19.56
2019-04-27T07:02:51.487Z,19.47
2019-04-27T07:03:51.104Z,19.51
2019-04-27T07:04:51.237Z,19.67
2019-04-27T07:05:50.904Z,19.81
2019-04-27T07:07:03.644Z,19.77
2019-04-27T07:07:51.402Z,19.84
2019-04-27T07:08:52.179Z,19.94
2019-04-27T07:09:51.746Z,19.95
2019-04-27T07:10:51.565Z,19.84
2019-04-27T07:11:51.998Z,19.86
2019-04-27T07:12:51.582Z,19.96
2019-04-27T07:13:49.923Z,20.07
2019-04-27T07:15:01.300Z,20.14
2019-04-27T07:15:50.737Z,20.31
2019-04-27T07:16:50.995Z,20.55
2019-04-27T07:17:51.200Z,20.62
2019-04-27T07:18:50.457Z,20.81
2019-04-27T07:19:51.823Z,20.87
2019-04-27T07:20:50.953Z,20.96
2019-04-27T07:21:52.140Z,20.95
2019-04-27T07:22:51.754Z,20.97
2019-04-27T07:23:51.237Z,20.99
2019-04-27T07:24:51.293Z,20.95
2019-04-27T07:25:51.225Z,21
2019-04-27T07:26:51.290Z,21.06
2019-04-27T07:27:51.852Z,21.21
2019-04-27T07:28:51.793Z,21.27
2019-04-27T07:29:53.624Z,21.48
2019-04-27T07:30:51.208Z,21.5
2019-04-27T07:31:52.086Z,21.17
2019-04-27T07:32:51.023Z,20.88
2019-04-27T07:33:51.556Z,20.75
2019-04-27T07:34:50.002Z,20.51
2019-04-27T07:35:52.263Z,20.55
2019-04-27T07:36:51.372Z,20.36
2019-04-27T07:37:51.324Z,20.24
2019-04-27T07:38:52.370Z,20.24
2019-04-27T07:39:51.693Z,20
2019-04-27T07:40:51.367Z,19.84
2019-04-27T07:41:51.264Z,19.48
2019-04-27T07:42:52.050Z,19.26
2019-04-27T07:43:51.802Z,19.12
2019-04-27T07:44:50.141Z,18.93
2019-04-27T07:45:51.865Z,18.9
2019-04-27T07:46:50.021Z,18.96
2019-04-27T07:47:51.767Z,18.98
2019-04-27T07:48:51.910Z,18.81
2019-04-27T07:49:51.890Z,18.66
2019-04-27T07:50:51.084Z,18.53
2019-04-27T07:51:51.159Z,18.55
2019-04-27T07:52:51.111Z,18.58
2019-04-27T07:53:51.338Z,18.43
2019-04-27T07:54:51.507Z,18.34
2019-04-27T07:55:51.607Z,18.2
2019-04-27T07:56:51.044Z,18.11
2019-04-27T07:57:51.897Z,18.2
2019-04-27T07:58:51.832Z,18.18
2019-04-27T07:59:52.444Z,18.19
2019-04-27T08:00:53.314Z,18.26
2019-04-27T08:01:51.352Z,18.37
2019-04-27T08:02:51.097Z,18.43
2019-04-27T08:03:51.478Z,18.38
2019-04-27T08:04:53.216Z,18.31
2019-04-27T08:05:51.345Z,18.23
2019-04-27T08:06:51.780Z,18.05
2019-04-27T08:07:51.567Z,17.92
2019-04-27T08:08:51.387Z,17.71
2019-04-27T08:09:52.158Z,17.6
2019-04-27T08:10:52.662Z,17.63
2019-04-27T08:11:51.269Z,17.56
2019-04-27T08:12:52.154Z,17.33
2019-04-27T08:13:51.482Z,17.22
2019-04-27T08:14:51.353Z,17.3
2019-04-27T08:15:52.004Z,17.3
2019-04-27T08:16:51.109Z,17.22
2019-04-27T08:17:51.794Z,17.23
2019-04-27T08:18:53.662Z,17.22
2019-04-27T08:19:52.119Z,17.27
2019-04-27T08:20:51.558Z,17.24
2019-04-27T08:21:52.417Z,17.31
2019-04-27T08:22:52.033Z,17.46
2019-04-27T08:23:51.454Z,17.44
2019-04-27T08:24:52.127Z,17.52
2019-04-27T08:25:51.428Z,17.56
2019-04-27T08:26:54.003Z,17.49
2019-04-27T08:27:51.497Z,17.56
2019-04-27T08:28:51.051Z,17.65
2019-04-27T08:29:50.993Z,17.7
2019-04-27T08:30:51.358Z,17.74
2019-04-27T08:31:51.054Z,17.83
2019-04-27T08:32:51.923Z,17.82
2019-04-27T08:33:50.859Z,17.76
2019-04-27T08:34:52.093Z,17.94
2019-04-27T08:35:51.539Z,17.97
2019-04-27T08:36:52.297Z,18.11
2019-04-27T08:37:51.611Z,18.11
2019-04-27T08:38:51.095Z,18.22
2019-04-27T08:39:53.354Z,18.29
2019-04-27T08:40:51.870Z,18.43
2019-04-27T08:41:51.913Z,18.53
2019-04-27T08:42:55.638Z,18.6
2019-04-27T08:43:51.033Z,18.4
2019-04-27T08:44:52.027Z,18.35
2019-04-27T08:45:51.238Z,18.23
2019-04-27T08:46:51.936Z,18.11
2019-04-27T08:47:51.971Z,18.03
2019-04-27T08:48:51.223Z,18.05
2019-04-27T08:49:51.644Z,18.07
2019-04-27T08:50:50.859Z,18.01
2019-04-27T08:52:03.960Z,17.98
2019-04-27T08:52:52.234Z,17.64
2019-04-27T08:53:50.381Z,17.41
2019-04-27T08:54:51.950Z,17.06
2019-04-27T08:55:52.890Z,16.78
2019-04-27T08:56:51.881Z,16.53
2019-04-27T08:57:51.382Z,16.42
2019-04-27T08:58:51.876Z,16.32
2019-04-27T08:59:51.691Z,16.31
2019-04-27T09:00:51.303Z,16.15
2019-04-27T09:01:51.427Z,16.16
2019-04-27T09:02:52.866Z,16.16
2019-04-27T09:03:51.918Z,16.16
2019-04-27T09:04:51.933Z,16.28
2019-04-27T09:05:51.490Z,16.23
2019-04-27T09:06:51.509Z,16.2
2019-04-27T09:07:51.824Z,16.16
2019-04-27T09:08:52.032Z,16.21
2019-04-27T09:09:52.170Z,16.31
2019-04-27T09:10:51.373Z,16.26
2019-04-27T09:11:51.814Z,16.17
2019-04-27T09:12:53.603Z,16.09
2019-04-27T09:13:50.986Z,16.09
2019-04-27T09:14:51.811Z,16.01
2019-04-27T09:15:51.820Z,16.05
2019-04-27T09:17:05.237Z,16.05
2019-04-27T09:17:51.249Z,16.05
2019-04-27T09:18:52.308Z,16.05
2019-04-27T09:19:51.353Z,15.98
2019-04-27T09:20:51.549Z,15.79
2019-04-27T09:21:51.001Z,15.75
2019-04-27T09:22:51.765Z,15.7
2019-04-27T09:23:51.324Z,15.61
2019-04-27T09:24:51.657Z,15.64
2019-04-27T09:25:52.076Z,15.67
2019-04-27T09:26:51.391Z,15.8
2019-04-27T09:27:51.502Z,15.75
2019-04-27T09:28:51.737Z,15.72
2019-04-27T09:29:52.311Z,15.68
2019-04-27T09:30:51.947Z,15.55
2019-04-27T09:31:51.465Z,15.42
2019-04-27T09:32:50.107Z,15.37
2019-04-27T09:33:50.108Z,15.24
2019-04-27T09:34:51.057Z,15.17
2019-04-27T09:35:50.975Z,15.31
2019-04-27T09:36:50.688Z,15.28
2019-04-27T09:37:50.472Z,15.29
2019-04-27T09:38:51.118Z,15.39
2019-04-27T09:39:50.936Z,15.47
2019-04-27T09:40:51.389Z,15.52
2019-04-27T09:41:51.167Z,15.55
2019-04-27T09:42:51.221Z,15.57
2019-04-27T09:43:51.181Z,15.51
2019-04-27T09:44:52.223Z,15.64
2019-04-27T09:45:51.778Z,15.67
2019-04-27T09:46:52.290Z,15.58
2019-04-27T09:47:51.449Z,15.58
2019-04-27T09:48:51.497Z,15.44
2019-04-27T09:49:51.015Z,15.28
2019-04-27T09:50:51.430Z,15.33
2019-04-27T09:51:50.828Z,15.29
2019-04-27T09:52:50.781Z,15.25
2019-04-27T09:53:50.699Z,15.15
2019-04-27T09:54:50.662Z,15.04
2019-04-27T09:55:51.452Z,15.09
2019-04-27T09:56:51.568Z,15
2019-04-27T09:57:51.090Z,14.96
2019-04-27T09:58:51.925Z,15.11
2019-04-27T09:59:50.865Z,15
2019-04-27T10:00:50.349Z,14.92
2019-04-27T10:01:51.308Z,14.89
2019-04-27T10:02:51.135Z,14.86
2019-04-27T10:03:51.196Z,14.88
2019-04-27T10:04:50.535Z,14.81
2019-04-27T10:05:50.560Z,14.81
2019-04-27T10:06:53.315Z,14.86
2019-04-27T10:07:51.929Z,14.92
2019-04-27T10:08:50.057Z,15.09
2019-04-27T10:09:51.972Z,15.19
2019-04-27T10:10:52.268Z,15.06
2019-04-27T10:11:49.806Z,15.25
2019-04-27T10:12:51.220Z,15.37
2019-04-27T10:13:51.367Z,15.37
2019-04-27T10:14:52.152Z,15.57
2019-04-27T10:15:50.304Z,15.58
2019-04-27T10:16:51.500Z,15.65
2019-04-27T10:17:50.060Z,15.83
2019-04-27T10:18:50.670Z,16.05
2019-04-27T10:19:50.992Z,16.12
2019-04-27T10:21:06.135Z,16.09
2019-04-27T10:21:51.570Z,16.09
2019-04-27T10:22:51.097Z,16.09
2019-04-27T10:23:51.848Z,16.05
2019-04-27T10:24:49.820Z,15.86
2019-04-27T10:25:50.623Z,15.82
2019-04-27T10:26:50.046Z,15.76
2019-04-27T10:27:50.637Z,15.64
2019-04-27T10:28:50.432Z,15.62
2019-04-27T10:29:51.410Z,15.59
2019-04-27T10:30:50.391Z,15.55
2019-04-27T10:31:52.556Z,15.52
2019-04-27T10:32:50.728Z,15.46
2019-04-27T10:33:50.473Z,15.54
2019-04-27T10:34:50.300Z,15.67
2019-04-27T10:35:52.084Z,15.79
2019-04-27T10:36:50.670Z,15.79
2019-04-27T10:37:50.365Z,15.91
2019-04-27T10:38:50.756Z,15.92
2019-04-27T10:39:50.631Z,15.86
2019-04-27T10:40:50.046Z,15.83
2019-04-27T10:41:51.159Z,15.83
2019-04-27T10:42:50.748Z,15.84
2019-04-27T10:43:49.801Z,15.91
2019-04-27T10:44:50.507Z,16.08
2019-04-27T10:45:51.126Z,16.1
2019-04-27T10:46:50.047Z,16.16
2019-04-27T10:47:52.160Z,16.23
2019-04-27T10:48:50.273Z,16.21
2019-04-27T10:49:52.859Z,16.38
2019-04-27T10:50:51.275Z,16.31
2019-04-27T10:51:50.656Z,16.09
2019-04-27T10:53:01.422Z,16.04
2019-04-27T10:53:50.308Z,15.92
2019-04-27T10:54:51.878Z,16.02
2019-04-27T10:55:50.997Z,16.04
2019-04-27T10:56:50.874Z,16.01
2019-04-27T10:57:50.089Z,15.83
2019-04-27T10:58:50.546Z,15.83
2019-04-27T10:59:50.991Z,15.76
2019-04-27T11:00:49.769Z,15.52
2019-04-27T11:01:50.606Z,15.52
2019-04-27T11:02:50.124Z,15.64
2019-04-27T11:03:51.113Z,15.68
2019-04-27T11:04:51.046Z,15.62
2019-04-27T11:05:50.857Z,15.58
2019-04-27T11:06:50.018Z,15.65
2019-04-27T11:07:50.660Z,15.52
2019-04-27T11:08:51.548Z,15.43
2019-04-27T11:09:50.039Z,15.43
2019-04-27T11:10:51.021Z,15.43
2019-04-27T11:11:50.709Z,15.43
2019-04-27T11:12:50.741Z,15.49
2019-04-27T11:13:50.915Z,15.49
2019-04-27T11:14:50.263Z,15.37
2019-04-27T11:15:50.994Z,15.43
2019-04-27T11:16:50.610Z,15.49
2019-04-27T11:17:52.282Z,15.42
2019-04-27T11:18:51.972Z,15.46
2019-04-27T11:19:50.870Z,15.47
2019-04-27T11:20:51.707Z,15.44
2019-04-27T11:21:50.258Z,15.44
2019-04-27T11:22:51.308Z,15.55
2019-04-27T11:23:50.508Z,15.46
2019-04-27T11:24:52.465Z,15.37
2019-04-27T11:25:51.387Z,15.42
2019-04-27T11:26:51.145Z,15.46
2019-04-27T11:27:49.779Z,15.49
2019-04-27T11:28:51.175Z,15.49
2019-04-27T11:29:50.799Z,15.46
2019-04-27T11:30:50.245Z,15.47
2019-04-27T11:31:51.194Z,15.55
2019-04-27T11:32:49.752Z,15.55
2019-04-27T11:33:51.031Z,15.59
2019-04-27T11:34:50.508Z,15.64
2019-04-27T11:35:51.524Z,15.64
2019-04-27T11:36:50.422Z,15.72
2019-04-27T11:37:50.006Z,15.62
2019-04-27T11:38:51.066Z,15.73
2019-04-27T11:39:50.402Z,15.72
2019-04-27T11:40:51.043Z,15.77
2019-04-27T11:41:50.007Z,15.79
2019-04-27T11:42:50.017Z,15.73
2019-04-27T11:43:51.009Z,15.75
2019-04-27T11:44:51.588Z,15.55
2019-04-27T11:45:50.643Z,15.44
2019-04-27T11:46:52.152Z,15.49
2019-04-27T11:47:50.223Z,15.44
2019-04-27T11:48:51.375Z,15.31
2019-04-27T11:49:50.508Z,15.4
2019-04-27T11:50:50.561Z,15.49
2019-04-27T11:51:51.451Z,15.55
2019-04-27T11:52:50.591Z,15.57
2019-04-27T11:53:51.659Z,15.76
2019-04-27T11:54:50.377Z,15.77
2019-04-27T11:55:49.982Z,15.76
2019-04-27T11:56:51.824Z,15.77
2019-04-27T11:57:51.846Z,15.79
2019-04-27T11:58:53.168Z,15.64
2019-04-27T11:59:50.033Z,15.72
2019-04-27T12:00:49.977Z,15.84
2019-04-27T12:01:50.637Z,15.94
2019-04-27T12:02:50.571Z,16.04
2019-04-27T12:03:49.714Z,16.17
2019-04-27T12:04:51.225Z,16.32
2019-04-27T12:05:51.298Z,16.46
2019-04-27T12:06:51.084Z,16.38
2019-04-27T12:07:52.112Z,16.32
2019-04-27T12:08:50.346Z,16.39
2019-04-27T12:09:51.317Z,16.54
2019-04-27T12:10:52.827Z,16.75
2019-04-27T12:11:49.976Z,16.93
2019-04-27T12:12:51.163Z,16.99
2019-04-27T12:13:50.471Z,17.11
2019-04-27T12:14:51.618Z,17.2
2019-04-27T12:15:51.053Z,17.12
2019-04-27T12:16:50.923Z,17.16
2019-04-27T12:17:50.697Z,17.22
2019-04-27T12:18:53.311Z,17.16
2019-04-27T12:19:51.049Z,17.16
2019-04-27T12:20:50.638Z,17.12
2019-04-27T12:21:50.961Z,17.16
2019-04-27T12:22:49.972Z,17.09
2019-04-27T12:23:51.765Z,17.12
2019-04-27T12:24:50.364Z,17.22
2019-04-27T12:25:51.025Z,17.23
2019-04-27T12:26:50.194Z,17.41
2019-04-27T12:27:50.644Z,17.31
2019-04-27T12:28:50.527Z,17.39
2019-04-27T12:29:52.054Z,17.38
2019-04-27T12:30:50.209Z,17.36
2019-04-27T12:31:53.349Z,17.46
2019-04-27T12:32:50.335Z,17.45
2019-04-27T12:33:50.867Z,17.51
2019-04-27T12:34:50.848Z,17.48
2019-04-27T12:35:52.625Z,17.39
2019-04-27T12:36:53.057Z,17.33
2019-04-27T12:37:50.316Z,17.08
2019-04-27T12:38:51.242Z,17.06
2019-04-27T12:39:50.202Z,17.05
2019-04-27T12:40:51.165Z,17.04
2019-04-27T12:41:51.045Z,17.08
2019-04-27T12:42:50.210Z,17.16
2019-04-27T12:43:50.760Z,17.19
2019-04-27T12:44:49.975Z,17.31
2019-04-27T12:45:50.585Z,17.49
2019-04-27T12:46:49.972Z,17.6
2019-04-27T12:47:51.287Z,17.71
2019-04-27T12:48:50.339Z,17.7
2019-04-27T12:49:50.211Z,17.79
2019-04-27T12:50:50.788Z,17.94
2019-04-27T12:51:50.505Z,17.94
2019-04-27T12:52:50.795Z,18.04
2019-04-27T12:53:56.015Z,18.16
2019-04-27T12:54:51.020Z,18.13
2019-04-27T12:55:51.340Z,18.04
2019-04-27T12:56:50.688Z,18.08
2019-04-27T12:57:49.730Z,18.13
2019-04-27T12:58:49.970Z,18.31
2019-04-27T12:59:51.227Z,18.41
2019-04-27T13:00:50.874Z,18.52